sensor_id;sensor_type;location;lat;lon;timestamp;P1;durP1;ratioP1;P2;durP2;ratioP2
8279;SDS011;8335;42.646;23.380;2023-07-13T00:00:35;6.05;;;4.47;;
8279;SDS011;8335;42.646;23.380;2023-07-13T00:03:02;8.93;;;4.47;;
8279;SDS011;8335;42.646;23.380;2023-07-13T00:05:29;7.75;;;4.65;;
8279;SDS011;8335;42.646;23.380;2023-07-13T00:07:57;8.30;;;4.57;;
8279;SDS011;8335;42.646;23.380;2023-07-13T00:10:24;8.00;;;4.28;;
8279;SDS011;8335;42.646;23.380;2023-07-13T00:12:52;5.55;;;4.32;;
8279;SDS011;8335;42.646;23.380;2023-07-13T00:15:25;8.73;;;4.45;;
8279;SDS011;8335;42.646;23.380;2023-07-13T00:17:55;6.88;;;4.03;;
8279;SDS011;8335;42.646;23.380;2023-07-13T00:20:22;7.75;;;4.60;;
8279;SDS011;8335;42.646;23.380;2023-07-13T00:22:50;5.65;;;4.10;;
8279;SDS011;8335;42.646;23.380;2023-07-13T00:25:18;8.25;;;4.35;;
8279;SDS011;8335;42.646;23.380;2023-07-13T00:27:46;5.03;;;4.50;;
8279;SDS011;8335;42.646;23.380;2023-07-13T00:30:15;5.28;;;4.22;;
8279;SDS011;8335;42.646;23.380;2023-07-13T00:32:42;6.15;;;4.32;;
8279;SDS011;8335;42.646;23.380;2023-07-13T00:35:09;8.10;;;5.30;;
8279;SDS011;8335;42.646;23.380;2023-07-13T00:37:36;6.47;;;5.28;;
8279;SDS011;8335;42.646;23.380;2023-07-13T00:40:04;6.43;;;4.63;;
8279;SDS011;8335;42.646;23.380;2023-07-13T00:42:32;5.78;;;4.75;;
8279;SDS011;8335;42.646;23.380;2023-07-13T00:45:07;5.60;;;4.88;;
8279;SDS011;8335;42.646;23.380;2023-07-13T00:47:50;7.78;;;5.30;;
8279;SDS011;8335;42.646;23.380;2023-07-13T00:50:17;7.28;;;5.30;;
8279;SDS011;8335;42.646;23.380;2023-07-13T00:52:46;7.80;;;5.00;;
8279;SDS011;8335;42.646;23.380;2023-07-13T00:55:17;6.95;;;5.13;;
8279;SDS011;8335;42.646;23.380;2023-07-13T00:57:44;10.55;;;5.13;;
8279;SDS011;8335;42.646;23.380;2023-07-13T01:00:11;7.85;;;5.45;;
8279;SDS011;8335;42.646;23.380;2023-07-13T01:02:39;8.35;;;4.82;;
8279;SDS011;8335;42.646;23.380;2023-07-13T01:05:13;6.93;;;4.97;;
8279;SDS011;8335;42.646;23.380;2023-07-13T01:07:41;6.65;;;4.93;;
8279;SDS011;8335;42.646;23.380;2023-07-13T01:10:09;7.50;;;4.85;;
8279;SDS011;8335;42.646;23.380;2023-07-13T01:12:37;6.28;;;4.82;;
8279;SDS011;8335;42.646;23.380;2023-07-13T01:15:04;6.03;;;5.18;;
8279;SDS011;8335;42.646;23.380;2023-07-13T01:17:33;5.65;;;5.03;;
8279;SDS011;8335;42.646;23.380;2023-07-13T01:20:00;6.78;;;5.22;;
8279;SDS011;8335;42.646;23.380;2023-07-13T01:22:29;7.80;;;4.97;;
8279;SDS011;8335;42.646;23.380;2023-07-13T01:24:57;7.10;;;4.60;;
8279;SDS011;8335;42.646;23.380;2023-07-13T01:27:24;6.53;;;5.00;;
8279;SDS011;8335;42.646;23.380;2023-07-13T01:29:53;6.88;;;4.97;;
8279;SDS011;8335;42.646;23.380;2023-07-13T01:32:27;6.00;;;4.78;;
8279;SDS011;8335;42.646;23.380;2023-07-13T01:34:54;6.15;;;5.28;;
8279;SDS011;8335;42.646;23.380;2023-07-13T01:37:21;7.55;;;5.60;;
8279;SDS011;8335;42.646;23.380;2023-07-13T01:39:49;7.65;;;5.60;;
8279;SDS011;8335;42.646;23.380;2023-07-13T01:42:16;6.03;;;5.30;;
8279;SDS011;8335;42.646;23.380;2023-07-13T01:44:43;6.90;;;5.18;;
8279;SDS011;8335;42.646;23.380;2023-07-13T01:47:10;5.30;;;4.80;;
8279;SDS011;8335;42.646;23.380;2023-07-13T01:49:37;7.07;;;5.25;;
8279;SDS011;8335;42.646;23.380;2023-07-13T01:52:04;7.10;;;5.15;;
8279;SDS011;8335;42.646;23.380;2023-07-13T01:54:31;7.57;;;5.25;;
8279;SDS011;8335;42.646;23.380;2023-07-13T01:57:00;8.40;;;5.30;;
8279;SDS011;8335;42.646;23.380;2023-07-13T01:59:27;8.52;;;5.28;;
8279;SDS011;8335;42.646;23.380;2023-07-13T02:01:53;8.65;;;5.70;;
8279;SDS011;8335;42.646;23.380;2023-07-13T02:04:20;6.05;;;5.20;;
8279;SDS011;8335;42.646;23.380;2023-07-13T02:06:47;8.35;;;5.45;;
8279;SDS011;8335;42.646;23.380;2023-07-13T02:09:14;7.57;;;5.90;;
8279;SDS011;8335;42.646;23.380;2023-07-13T02:11:40;9.65;;;5.93;;
8279;SDS011;8335;42.646;23.380;2023-07-13T02:14:08;7.60;;;5.60;;
8279;SDS011;8335;42.646;23.380;2023-07-13T02:16:34;8.00;;;5.28;;
8279;SDS011;8335;42.646;23.380;2023-07-13T02:19:01;7.80;;;6.18;;
8279;SDS011;8335;42.646;23.380;2023-07-13T02:21:28;9.68;;;5.95;;
8279;SDS011;8335;42.646;23.380;2023-07-13T02:23:55;7.63;;;5.82;;
8279;SDS011;8335;42.646;23.380;2023-07-13T02:26:22;6.43;;;5.68;;
8279;SDS011;8335;42.646;23.380;2023-07-13T02:28:49;6.65;;;5.45;;
8279;SDS011;8335;42.646;23.380;2023-07-13T02:31:17;10.02;;;5.45;;
8279;SDS011;8335;42.646;23.380;2023-07-13T02:33:45;10.60;;;5.75;;
8279;SDS011;8335;42.646;23.380;2023-07-13T02:36:12;7.97;;;5.82;;
8279;SDS011;8335;42.646;23.380;2023-07-13T02:38:41;7.60;;;6.07;;
8279;SDS011;8335;42.646;23.380;2023-07-13T02:41:08;7.07;;;5.55;;
8279;SDS011;8335;42.646;23.380;2023-07-13T02:43:36;7.15;;;5.72;;
8279;SDS011;8335;42.646;23.380;2023-07-13T02:46:04;12.18;;;6.53;;
8279;SDS011;8335;42.646;23.380;2023-07-13T02:48:34;6.18;;;5.53;;
8279;SDS011;8335;42.646;23.380;2023-07-13T02:51:01;8.20;;;5.68;;
8279;SDS011;8335;42.646;23.380;2023-07-13T02:53:28;6.82;;;5.68;;
8279;SDS011;8335;42.646;23.380;2023-07-13T02:55:56;8.45;;;5.45;;
8279;SDS011;8335;42.646;23.380;2023-07-13T02:58:22;13.50;;;6.05;;
8279;SDS011;8335;42.646;23.380;2023-07-13T03:00:49;6.47;;;5.07;;
8279;SDS011;8335;42.646;23.380;2023-07-13T03:03:16;9.38;;;6.00;;
8279;SDS011;8335;42.646;23.380;2023-07-13T03:05:45;6.13;;;5.50;;
8279;SDS011;8335;42.646;23.380;2023-07-13T03:08:15;7.85;;;5.60;;
8279;SDS011;8335;42.646;23.380;2023-07-13T03:10:43;7.38;;;5.60;;
8279;SDS011;8335;42.646;23.380;2023-07-13T03:13:10;9.25;;;6.03;;
8279;SDS011;8335;42.646;23.380;2023-07-13T03:15:36;8.40;;;6.13;;
8279;SDS011;8335;42.646;23.380;2023-07-13T03:18:03;8.35;;;5.75;;
8279;SDS011;8335;42.646;23.380;2023-07-13T03:20:32;7.18;;;5.90;;
8279;SDS011;8335;42.646;23.380;2023-07-13T03:23:00;7.07;;;5.70;;
8279;SDS011;8335;42.646;23.380;2023-07-13T03:25:28;7.82;;;6.28;;
8279;SDS011;8335;42.646;23.380;2023-07-13T03:27:55;9.52;;;5.32;;
8279;SDS011;8335;42.646;23.380;2023-07-13T03:30:21;7.72;;;6.00;;
8279;SDS011;8335;42.646;23.380;2023-07-13T03:32:48;6.57;;;5.90;;
8279;SDS011;8335;42.646;23.380;2023-07-13T03:35:15;9.18;;;5.72;;
8279;SDS011;8335;42.646;23.380;2023-07-13T03:37:42;7.45;;;5.50;;
8279;SDS011;8335;42.646;23.380;2023-07-13T03:40:10;10.23;;;6.45;;
8279;SDS011;8335;42.646;23.380;2023-07-13T03:42:38;6.47;;;5.45;;
8279;SDS011;8335;42.646;23.380;2023-07-13T03:45:05;9.15;;;6.50;;
8279;SDS011;8335;42.646;23.380;2023-07-13T03:47:33;6.45;;;5.78;;
8279;SDS011;8335;42.646;23.380;2023-07-13T03:50:00;9.43;;;6.10;;
8279;SDS011;8335;42.646;23.380;2023-07-13T03:52:27;7.18;;;5.68;;
8279;SDS011;8335;42.646;23.380;2023-07-13T03:54:54;10.95;;;6.22;;
8279;SDS011;8335;42.646;23.380;2023-07-13T03:57:22;6.82;;;5.90;;
8279;SDS011;8335;42.646;23.380;2023-07-13T03:59:48;7.03;;;6.03;;
8279;SDS011;8335;42.646;23.380;2023-07-13T04:02:15;8.20;;;5.72;;
8279;SDS011;8335;42.646;23.380;2023-07-13T04:04:42;7.28;;;5.88;;
8279;SDS011;8335;42.646;23.380;2023-07-13T04:07:09;10.35;;;5.95;;
8279;SDS011;8335;42.646;23.380;2023-07-13T04:09:36;7.72;;;5.57;;
8279;SDS011;8335;42.646;23.380;2023-07-13T04:12:03;8.07;;;5.32;;
8279;SDS011;8335;42.646;23.380;2023-07-13T04:14:32;7.75;;;5.25;;
8279;SDS011;8335;42.646;23.380;2023-07-13T04:16:58;9.25;;;5.63;;
8279;SDS011;8335;42.646;23.380;2023-07-13T04:19:25;7.75;;;5.88;;
8279;SDS011;8335;42.646;23.380;2023-07-13T04:21:52;7.13;;;5.80;;
8279;SDS011;8335;42.646;23.380;2023-07-13T04:24:19;10.50;;;6.30;;
8279;SDS011;8335;42.646;23.380;2023-07-13T04:26:45;9.85;;;5.70;;
8279;SDS011;8335;42.646;23.380;2023-07-13T04:29:12;8.57;;;5.32;;
8279;SDS011;8335;42.646;23.380;2023-07-13T04:31:40;8.88;;;5.72;;
8279;SDS011;8335;42.646;23.380;2023-07-13T04:34:07;10.85;;;5.70;;
8279;SDS011;8335;42.646;23.380;2023-07-13T04:36:34;11.15;;;5.28;;
8279;SDS011;8335;42.646;23.380;2023-07-13T04:39:02;10.38;;;6.30;;
8279;SDS011;8335;42.646;23.380;2023-07-13T04:41:29;8.95;;;5.45;;
8279;SDS011;8335;42.646;23.380;2023-07-13T04:43:56;10.68;;;5.80;;
8279;SDS011;8335;42.646;23.380;2023-07-13T04:46:23;12.30;;;5.72;;
8279;SDS011;8335;42.646;23.380;2023-07-13T04:48:51;8.75;;;5.72;;
8279;SDS011;8335;42.646;23.380;2023-07-13T04:51:18;8.50;;;5.40;;
8279;SDS011;8335;42.646;23.380;2023-07-13T04:53:45;17.00;;;5.70;;
8279;SDS011;8335;42.646;23.380;2023-07-13T04:56:12;6.75;;;5.30;;
8279;SDS011;8335;42.646;23.380;2023-07-13T04:58:38;7.03;;;5.32;;
8279;SDS011;8335;42.646;23.380;2023-07-13T05:01:06;6.47;;;4.97;;
8279;SDS011;8335;42.646;23.380;2023-07-13T05:03:33;7.25;;;4.93;;
8279;SDS011;8335;42.646;23.380;2023-07-13T05:06:02;8.57;;;5.22;;
8279;SDS011;8335;42.646;23.380;2023-07-13T05:08:31;5.68;;;4.97;;
8279;SDS011;8335;42.646;23.380;2023-07-13T05:10:59;7.60;;;5.30;;
8279;SDS011;8335;42.646;23.380;2023-07-13T05:13:26;8.43;;;6.00;;
8279;SDS011;8335;42.646;23.380;2023-07-13T05:15:56;8.90;;;5.50;;
8279;SDS011;8335;42.646;23.380;2023-07-13T05:18:24;7.88;;;5.50;;
8279;SDS011;8335;42.646;23.380;2023-07-13T05:21:02;8.35;;;5.78;;
8279;SDS011;8335;42.646;23.380;2023-07-13T05:23:31;5.72;;;5.20;;
8279;SDS011;8335;42.646;23.380;2023-07-13T05:25:58;8.18;;;4.97;;
8279;SDS011;8335;42.646;23.380;2023-07-13T05:28:25;6.05;;;5.10;;
8279;SDS011;8335;42.646;23.380;2023-07-13T05:30:52;7.20;;;5.07;;
8279;SDS011;8335;42.646;23.380;2023-07-13T05:33:19;6.82;;;5.40;;
8279;SDS011;8335;42.646;23.380;2023-07-13T05:35:46;8.75;;;5.57;;
8279;SDS011;8335;42.646;23.380;2023-07-13T05:38:15;8.02;;;5.00;;
8279;SDS011;8335;42.646;23.380;2023-07-13T05:40:42;7.88;;;5.25;;
8279;SDS011;8335;42.646;23.380;2023-07-13T05:43:09;6.90;;;5.57;;
8279;SDS011;8335;42.646;23.380;2023-07-13T05:45:36;5.88;;;4.90;;
8279;SDS011;8335;42.646;23.380;2023-07-13T05:48:03;5.25;;;4.75;;
8279;SDS011;8335;42.646;23.380;2023-07-13T05:50:30;8.18;;;5.47;;
8279;SDS011;8335;42.646;23.380;2023-07-13T05:52:57;6.65;;;5.05;;
8279;SDS011;8335;42.646;23.380;2023-07-13T05:55:25;7.03;;;5.20;;
8279;SDS011;8335;42.646;23.380;2023-07-13T05:57:52;9.43;;;5.43;;
8279;SDS011;8335;42.646;23.380;2023-07-13T06:00:19;13.43;;;5.50;;
8279;SDS011;8335;42.646;23.380;2023-07-13T06:02:45;8.02;;;5.63;;
8279;SDS011;8335;42.646;23.380;2023-07-13T06:05:12;5.50;;;4.72;;
8279;SDS011;8335;42.646;23.380;2023-07-13T06:07:39;6.60;;;5.00;;
8279;SDS011;8335;42.646;23.380;2023-07-13T06:10:06;6.00;;;5.22;;
8279;SDS011;8335;42.646;23.380;2023-07-13T06:12:34;8.02;;;5.18;;
8279;SDS011;8335;42.646;23.380;2023-07-13T06:15:01;10.85;;;5.53;;
8279;SDS011;8335;42.646;23.380;2023-07-13T06:17:28;9.90;;;5.65;;
8279;SDS011;8335;42.646;23.380;2023-07-13T06:19:55;7.25;;;5.45;;
8279;SDS011;8335;42.646;23.380;2023-07-13T06:22:22;8.23;;;5.63;;
8279;SDS011;8335;42.646;23.380;2023-07-13T06:24:49;12.90;;;5.75;;
8279;SDS011;8335;42.646;23.380;2023-07-13T06:27:16;6.30;;;5.10;;
8279;SDS011;8335;42.646;23.380;2023-07-13T06:29:44;6.68;;;5.20;;
8279;SDS011;8335;42.646;23.380;2023-07-13T06:32:11;8.57;;;5.15;;
8279;SDS011;8335;42.646;23.380;2023-07-13T06:34:38;6.60;;;5.18;;
8279;SDS011;8335;42.646;23.380;2023-07-13T06:37:05;9.25;;;5.15;;
8279;SDS011;8335;42.646;23.380;2023-07-13T06:39:32;9.70;;;5.60;;
8279;SDS011;8335;42.646;23.380;2023-07-13T06:41:59;9.60;;;5.15;;
8279;SDS011;8335;42.646;23.380;2023-07-13T06:44:25;8.95;;;5.45;;
8279;SDS011;8335;42.646;23.380;2023-07-13T06:46:54;15.75;;;5.88;;
8279;SDS011;8335;42.646;23.380;2023-07-13T06:49:21;11.38;;;5.40;;
8279;SDS011;8335;42.646;23.380;2023-07-13T06:51:47;9.15;;;5.60;;
8279;SDS011;8335;42.646;23.380;2023-07-13T06:54:14;10.18;;;5.40;;
8279;SDS011;8335;42.646;23.380;2023-07-13T06:56:41;6.95;;;5.45;;
8279;SDS011;8335;42.646;23.380;2023-07-13T06:59:08;9.13;;;5.13;;
8279;SDS011;8335;42.646;23.380;2023-07-13T07:01:35;10.90;;;5.38;;
8279;SDS011;8335;42.646;23.380;2023-07-13T07:04:04;8.98;;;5.57;;
8279;SDS011;8335;42.646;23.380;2023-07-13T07:06:31;10.00;;;5.40;;
8279;SDS011;8335;42.646;23.380;2023-07-13T07:08:58;12.43;;;5.97;;
8279;SDS011;8335;42.646;23.380;2023-07-13T07:11:25;11.85;;;5.70;;
8279;SDS011;8335;42.646;23.380;2023-07-13T07:13:52;12.38;;;6.18;;
8279;SDS011;8335;42.646;23.380;2023-07-13T07:16:20;12.30;;;6.10;;
8279;SDS011;8335;42.646;23.380;2023-07-13T07:18:47;15.48;;;6.50;;
8279;SDS011;8335;42.646;23.380;2023-07-13T07:21:15;12.43;;;6.03;;
8279;SDS011;8335;42.646;23.380;2023-07-13T07:23:42;15.70;;;6.97;;
8279;SDS011;8335;42.646;23.380;2023-07-13T07:26:09;19.25;;;6.95;;
8279;SDS011;8335;42.646;23.380;2023-07-13T07:28:36;12.27;;;6.85;;
8279;SDS011;8335;42.646;23.380;2023-07-13T07:31:03;12.05;;;6.68;;
8279;SDS011;8335;42.646;23.380;2023-07-13T07:33:30;19.00;;;6.45;;
8279;SDS011;8335;42.646;23.380;2023-07-13T07:35:58;16.42;;;7.00;;
8279;SDS011;8335;42.646;23.380;2023-07-13T07:38:26;14.70;;;6.55;;
8279;SDS011;8335;42.646;23.380;2023-07-13T07:40:53;15.93;;;6.70;;
8279;SDS011;8335;42.646;23.380;2023-07-13T07:43:20;12.88;;;6.78;;
8279;SDS011;8335;42.646;23.380;2023-07-13T07:45:47;11.15;;;6.25;;
8279;SDS011;8335;42.646;23.380;2023-07-13T07:48:14;16.42;;;6.00;;
8279;SDS011;8335;42.646;23.380;2023-07-13T07:50:41;9.70;;;6.47;;
8279;SDS011;8335;42.646;23.380;2023-07-13T07:53:07;8.27;;;5.63;;
8279;SDS011;8335;42.646;23.380;2023-07-13T07:55:37;11.93;;;5.28;;
8279;SDS011;8335;42.646;23.380;2023-07-13T07:58:04;10.57;;;5.68;;
8279;SDS011;8335;42.646;23.380;2023-07-13T08:00:31;10.13;;;5.55;;
8279;SDS011;8335;42.646;23.380;2023-07-13T08:02:58;10.63;;;6.00;;
8279;SDS011;8335;42.646;23.380;2023-07-13T08:05:25;10.45;;;5.80;;
8279;SDS011;8335;42.646;23.380;2023-07-13T08:07:52;9.63;;;5.60;;
8279;SDS011;8335;42.646;23.380;2023-07-13T08:10:19;9.82;;;6.45;;
8279;SDS011;8335;42.646;23.380;2023-07-13T08:12:47;7.88;;;7.07;;
8279;SDS011;8335;42.646;23.380;2023-07-13T08:15:15;8.90;;;5.63;;
8279;SDS011;8335;42.646;23.380;2023-07-13T08:17:46;12.77;;;6.05;;
8279;SDS011;8335;42.646;23.380;2023-07-13T08:20:13;9.25;;;5.88;;
8279;SDS011;8335;42.646;23.380;2023-07-13T08:22:40;10.15;;;5.75;;
8279;SDS011;8335;42.646;23.380;2023-07-13T08:25:07;11.05;;;6.00;;
8279;SDS011;8335;42.646;23.380;2023-07-13T08:27:34;13.07;;;6.15;;
8279;SDS011;8335;42.646;23.380;2023-07-13T08:30:02;12.15;;;6.15;;
8279;SDS011;8335;42.646;23.380;2023-07-13T08:32:30;8.05;;;5.43;;
8279;SDS011;8335;42.646;23.380;2023-07-13T08:34:57;11.35;;;6.45;;
8279;SDS011;8335;42.646;23.380;2023-07-13T08:37:24;10.25;;;6.18;;
8279;SDS011;8335;42.646;23.380;2023-07-13T08:39:51;7.68;;;5.93;;
8279;SDS011;8335;42.646;23.380;2023-07-13T08:42:22;11.93;;;6.35;;
8279;SDS011;8335;42.646;23.380;2023-07-13T08:45:04;12.70;;;5.82;;
8279;SDS011;8335;42.646;23.380;2023-07-13T08:47:43;8.40;;;5.90;;
8279;SDS011;8335;42.646;23.380;2023-07-13T08:50:15;11.38;;;5.68;;
8279;SDS011;8335;42.646;23.380;2023-07-13T08:52:45;12.63;;;5.47;;
8279;SDS011;8335;42.646;23.380;2023-07-13T08:55:14;8.90;;;5.38;;
8279;SDS011;8335;42.646;23.380;2023-07-13T08:57:44;10.40;;;5.43;;
8279;SDS011;8335;42.646;23.380;2023-07-13T09:00:16;14.02;;;6.05;;
8279;SDS011;8335;42.646;23.380;2023-07-13T09:02:45;8.25;;;5.10;;
8279;SDS011;8335;42.646;23.380;2023-07-13T09:05:22;18.88;;;5.72;;
8279;SDS011;8335;42.646;23.380;2023-07-13T09:08:00;10.15;;;5.72;;
8279;SDS011;8335;42.646;23.380;2023-07-13T09:10:36;7.72;;;5.85;;
8279;SDS011;8335;42.646;23.380;2023-07-13T09:13:14;7.05;;;5.38;;
8279;SDS011;8335;42.646;23.380;2023-07-13T09:15:51;8.57;;;6.15;;
8279;SDS011;8335;42.646;23.380;2023-07-13T09:18:21;11.63;;;6.03;;
8279;SDS011;8335;42.646;23.380;2023-07-13T09:20:52;13.70;;;6.18;;
8279;SDS011;8335;42.646;23.380;2023-07-13T09:23:23;11.40;;;6.28;;
8279;SDS011;8335;42.646;23.380;2023-07-13T09:25:51;16.60;;;6.32;;
8279;SDS011;8335;42.646;23.380;2023-07-13T09:28:22;10.27;;;5.90;;
8279;SDS011;8335;42.646;23.380;2023-07-13T09:30:54;12.98;;;6.30;;
8279;SDS011;8335;42.646;23.380;2023-07-13T09:33:27;14.63;;;6.18;;
8279;SDS011;8335;42.646;23.380;2023-07-13T09:35:55;13.60;;;6.20;;
8279;SDS011;8335;42.646;23.380;2023-07-13T09:38:24;10.48;;;6.18;;
8279;SDS011;8335;42.646;23.380;2023-07-13T09:41:02;11.15;;;6.25;;
8279;SDS011;8335;42.646;23.380;2023-07-13T09:43:36;12.32;;;7.03;;
8279;SDS011;8335;42.646;23.380;2023-07-13T09:46:07;15.23;;;7.28;;
8279;SDS011;8335;42.646;23.380;2023-07-13T09:48:47;12.18;;;6.65;;
8279;SDS011;8335;42.646;23.380;2023-07-13T09:51:15;18.98;;;9.15;;
8279;SDS011;8335;42.646;23.380;2023-07-13T09:53:41;10.13;;;6.45;;
8279;SDS011;8335;42.646;23.380;2023-07-13T09:56:18;12.13;;;6.68;;
8279;SDS011;8335;42.646;23.380;2023-07-13T09:58:46;14.20;;;6.45;;
8279;SDS011;8335;42.646;23.380;2023-07-13T10:01:14;19.48;;;7.22;;
8279;SDS011;8335;42.646;23.380;2023-07-13T10:03:51;12.45;;;6.40;;
8279;SDS011;8335;42.646;23.380;2023-07-13T10:06:20;11.52;;;6.78;;
8279;SDS011;8335;42.646;23.380;2023-07-13T10:08:49;11.95;;;6.82;;
8279;SDS011;8335;42.646;23.380;2023-07-13T10:11:17;15.55;;;7.00;;
8279;SDS011;8335;42.646;23.380;2023-07-13T10:13:50;13.35;;;6.55;;
8279;SDS011;8335;42.646;23.380;2023-07-13T10:16:22;13.48;;;6.63;;
8279;SDS011;8335;42.646;23.380;2023-07-13T10:18:53;13.82;;;7.07;;
8279;SDS011;8335;42.646;23.380;2023-07-13T10:21:23;13.48;;;6.57;;
8279;SDS011;8335;42.646;23.380;2023-07-13T10:23:55;12.85;;;6.82;;
8279;SDS011;8335;42.646;23.380;2023-07-13T10:26:26;13.63;;;6.97;;
8279;SDS011;8335;42.646;23.380;2023-07-13T10:29:01;11.90;;;7.32;;
8279;SDS011;8335;42.646;23.380;2023-07-13T10:31:34;13.98;;;6.85;;
8279;SDS011;8335;42.646;23.380;2023-07-13T10:34:04;13.40;;;6.82;;
8279;SDS011;8335;42.646;23.380;2023-07-13T10:36:33;12.85;;;6.80;;
8279;SDS011;8335;42.646;23.380;2023-07-13T10:39:05;16.35;;;7.03;;
8279;SDS011;8335;42.646;23.380;2023-07-13T10:41:34;13.98;;;7.15;;
8279;SDS011;8335;42.646;23.380;2023-07-13T10:44:06;13.15;;;6.32;;
8279;SDS011;8335;42.646;23.380;2023-07-13T10:46:42;14.07;;;6.65;;
8279;SDS011;8335;42.646;23.380;2023-07-13T10:49:10;13.25;;;6.22;;
8279;SDS011;8335;42.646;23.380;2023-07-13T10:51:38;20.00;;;7.15;;
8279;SDS011;8335;42.646;23.380;2023-07-13T10:54:19;11.93;;;5.70;;
8279;SDS011;8335;42.646;23.380;2023-07-13T10:56:52;7.68;;;6.03;;
8279;SDS011;8335;42.646;23.380;2023-07-13T10:59:33;13.27;;;6.90;;
8279;SDS011;8335;42.646;23.380;2023-07-13T11:02:06;13.55;;;7.13;;
8279;SDS011;8335;42.646;23.380;2023-07-13T11:04:41;14.48;;;7.07;;
8279;SDS011;8335;42.646;23.380;2023-07-13T11:07:16;13.60;;;7.43;;
8279;SDS011;8335;42.646;23.380;2023-07-13T11:09:49;16.88;;;6.60;;
8279;SDS011;8335;42.646;23.380;2023-07-13T11:12:28;12.23;;;6.78;;
8279;SDS011;8335;42.646;23.380;2023-07-13T11:15:11;13.27;;;7.45;;
8279;SDS011;8335;42.646;23.380;2023-07-13T11:20:32;11.73;;;6.82;;
8279;SDS011;8335;42.646;23.380;2023-07-13T11:23:08;10.30;;;6.68;;
8279;SDS011;8335;42.646;23.380;2023-07-13T11:25:55;13.55;;;6.50;;
8279;SDS011;8335;42.646;23.380;2023-07-13T11:28:23;12.63;;;6.88;;
8279;SDS011;8335;42.646;23.380;2023-07-13T11:31:03;14.20;;;7.55;;
8279;SDS011;8335;42.646;23.380;2023-07-13T11:36:39;13.88;;;6.90;;
8279;SDS011;8335;42.646;23.380;2023-07-13T11:39:12;12.05;;;6.47;;
8279;SDS011;8335;42.646;23.380;2023-07-13T11:41:48;13.70;;;6.95;;
8279;SDS011;8335;42.646;23.380;2023-07-13T11:44:21;16.33;;;7.05;;
8279;SDS011;8335;42.646;23.380;2023-07-13T11:46:50;8.73;;;6.00;;
8279;SDS011;8335;42.646;23.380;2023-07-13T11:49:21;11.85;;;5.32;;
8279;SDS011;8335;42.646;23.380;2023-07-13T11:51:49;13.02;;;5.28;;
8279;SDS011;8335;42.646;23.380;2023-07-13T11:54:26;14.75;;;6.00;;
8279;SDS011;8335;42.646;23.380;2023-07-13T11:56:55;14.80;;;6.43;;
8279;SDS011;8335;42.646;23.380;2023-07-13T11:59:25;15.93;;;7.15;;
8279;SDS011;8335;42.646;23.380;2023-07-13T12:01:52;10.57;;;6.45;;
8279;SDS011;8335;42.646;23.380;2023-07-13T12:04:23;9.73;;;6.05;;
8279;SDS011;8335;42.646;23.380;2023-07-13T12:06:55;12.27;;;5.97;;
8279;SDS011;8335;42.646;23.380;2023-07-13T12:09:26;12.07;;;6.10;;
8279;SDS011;8335;42.646;23.380;2023-07-13T12:11:56;18.15;;;6.40;;
8279;SDS011;8335;42.646;23.380;2023-07-13T12:14:23;15.05;;;6.45;;
8279;SDS011;8335;42.646;23.380;2023-07-13T12:16:51;13.00;;;5.90;;
8279;SDS011;8335;42.646;23.380;2023-07-13T12:19:20;10.90;;;5.75;;
8279;SDS011;8335;42.646;23.380;2023-07-13T12:21:50;12.48;;;6.20;;
8279;SDS011;8335;42.646;23.380;2023-07-13T12:24:20;11.48;;;5.70;;
8279;SDS011;8335;42.646;23.380;2023-07-13T12:26:50;21.63;;;6.28;;
8279;SDS011;8335;42.646;23.380;2023-07-13T12:29:17;9.98;;;5.53;;
8279;SDS011;8335;42.646;23.380;2023-07-13T12:31:45;12.27;;;6.35;;
8279;SDS011;8335;42.646;23.380;2023-07-13T12:34:14;12.80;;;6.07;;
8279;SDS011;8335;42.646;23.380;2023-07-13T12:36:45;10.32;;;5.45;;
8279;SDS011;8335;42.646;23.380;2023-07-13T12:39:17;14.27;;;5.53;;
8279;SDS011;8335;42.646;23.380;2023-07-13T12:41:45;11.18;;;5.53;;
8279;SDS011;8335;42.646;23.380;2023-07-13T12:44:13;17.52;;;6.05;;
8279;SDS011;8335;42.646;23.380;2023-07-13T12:46:54;12.27;;;6.18;;
8279;SDS011;8335;42.646;23.380;2023-07-13T12:49:25;11.75;;;5.90;;
8279;SDS011;8335;42.646;23.380;2023-07-13T12:51:59;17.95;;;5.90;;
8279;SDS011;8335;42.646;23.380;2023-07-13T12:54:29;11.73;;;5.82;;
8279;SDS011;8335;42.646;23.380;2023-07-13T12:56:56;11.95;;;6.00;;
8279;SDS011;8335;42.646;23.380;2023-07-13T12:59:29;16.65;;;6.03;;
8279;SDS011;8335;42.646;23.380;2023-07-13T13:02:01;12.07;;;6.38;;
8279;SDS011;8335;42.646;23.380;2023-07-13T13:04:29;9.63;;;5.13;;
8279;SDS011;8335;42.646;23.380;2023-07-13T13:07:02;13.75;;;6.65;;
8279;SDS011;8335;42.646;23.380;2023-07-13T13:09:33;19.00;;;6.35;;
8279;SDS011;8335;42.646;23.380;2023-07-13T13:11:59;13.43;;;5.80;;
8279;SDS011;8335;42.646;23.380;2023-07-13T13:14:26;13.00;;;5.50;;
8279;SDS011;8335;42.646;23.380;2023-07-13T13:16:53;11.57;;;5.82;;
8279;SDS011;8335;42.646;23.380;2023-07-13T13:19:21;10.88;;;5.70;;
8279;SDS011;8335;42.646;23.380;2023-07-13T13:21:50;11.85;;;6.25;;
8279;SDS011;8335;42.646;23.380;2023-07-13T13:24:20;8.25;;;6.03;;
8279;SDS011;8335;42.646;23.380;2023-07-13T13:26:50;12.27;;;6.18;;
8279;SDS011;8335;42.646;23.380;2023-07-13T13:29:18;12.35;;;5.60;;
8279;SDS011;8335;42.646;23.380;2023-07-13T13:31:46;10.43;;;5.80;;
8279;SDS011;8335;42.646;23.380;2023-07-13T13:34:14;11.32;;;5.55;;
8279;SDS011;8335;42.646;23.380;2023-07-13T13:36:42;11.75;;;5.70;;
8279;SDS011;8335;42.646;23.380;2023-07-13T13:39:15;17.33;;;6.18;;
8279;SDS011;8335;42.646;23.380;2023-07-13T13:41:46;15.68;;;5.70;;
8279;SDS011;8335;42.646;23.380;2023-07-13T13:44:15;16.38;;;5.97;;
8279;SDS011;8335;42.646;23.380;2023-07-13T13:46:43;13.45;;;6.47;;
8279;SDS011;8335;42.646;23.380;2023-07-13T13:49:13;12.07;;;5.75;;
8279;SDS011;8335;42.646;23.380;2023-07-13T13:51:42;12.88;;;6.28;;
8279;SDS011;8335;42.646;23.380;2023-07-13T13:54:10;15.13;;;5.97;;
8279;SDS011;8335;42.646;23.380;2023-07-13T13:56:41;16.75;;;5.50;;
8279;SDS011;8335;42.646;23.380;2023-07-13T13:59:08;11.68;;;6.18;;
8279;SDS011;8335;42.646;23.380;2023-07-13T14:01:36;12.45;;;6.47;;
8279;SDS011;8335;42.646;23.380;2023-07-13T14:04:03;11.93;;;6.40;;
8279;SDS011;8335;42.646;23.380;2023-07-13T14:06:32;12.02;;;5.90;;
8279;SDS011;8335;42.646;23.380;2023-07-13T14:08:59;14.45;;;6.15;;
8279;SDS011;8335;42.646;23.380;2023-07-13T14:11:27;17.83;;;5.85;;
8279;SDS011;8335;42.646;23.380;2023-07-13T14:13:58;10.27;;;6.03;;
8279;SDS011;8335;42.646;23.380;2023-07-13T14:16:28;10.18;;;6.00;;
8279;SDS011;8335;42.646;23.380;2023-07-13T14:18:58;11.48;;;5.32;;
8279;SDS011;8335;42.646;23.380;2023-07-13T14:21:27;11.73;;;5.47;;
8279;SDS011;8335;42.646;23.380;2023-07-13T14:23:55;13.02;;;6.47;;
8279;SDS011;8335;42.646;23.380;2023-07-13T14:26:22;12.95;;;6.03;;
8279;SDS011;8335;42.646;23.380;2023-07-13T14:28:52;14.05;;;6.13;;
8279;SDS011;8335;42.646;23.380;2023-07-13T14:31:20;13.60;;;5.85;;
8279;SDS011;8335;42.646;23.380;2023-07-13T14:33:49;10.60;;;5.50;;
8279;SDS011;8335;42.646;23.380;2023-07-13T14:36:20;15.65;;;6.13;;
8279;SDS011;8335;42.646;23.380;2023-07-13T14:38:51;11.93;;;6.00;;
8279;SDS011;8335;42.646;23.380;2023-07-13T14:41:18;11.60;;;5.95;;
8279;SDS011;8335;42.646;23.380;2023-07-13T14:43:45;13.43;;;5.82;;
8279;SDS011;8335;42.646;23.380;2023-07-13T14:46:16;14.30;;;6.20;;
8279;SDS011;8335;42.646;23.380;2023-07-13T14:48:50;12.20;;;6.00;;
8279;SDS011;8335;42.646;23.380;2023-07-13T14:51:17;24.25;;;9.15;;
8279;SDS011;8335;42.646;23.380;2023-07-13T14:53:45;10.52;;;5.70;;
8279;SDS011;8335;42.646;23.380;2023-07-13T14:56:12;7.30;;;5.35;;
8279;SDS011;8335;42.646;23.380;2023-07-13T14:58:40;9.40;;;5.55;;
8279;SDS011;8335;42.646;23.380;2023-07-13T15:01:08;8.68;;;5.93;;
8279;SDS011;8335;42.646;23.380;2023-07-13T15:03:40;11.40;;;5.68;;
8279;SDS011;8335;42.646;23.380;2023-07-13T15:06:11;17.23;;;6.40;;
8279;SDS011;8335;42.646;23.380;2023-07-13T15:08:39;16.65;;;5.97;;
8279;SDS011;8335;42.646;23.380;2023-07-13T15:11:08;12.52;;;5.82;;